createdAt,value
2023-04-12T00:02:19.711Z,97835.53
2023-04-12T00:04:55.322Z,97830.06
2023-04-12T00:07:25.535Z,97833.41
2023-04-12T00:09:52.605Z,97833.22
2023-04-12T00:12:20.728Z,97826.34
2023-04-12T00:14:47.866Z,97828.28
2023-04-12T00:17:14.824Z,97824.78
2023-04-12T00:19:41.999Z,97823.53
2023-04-12T00:22:10.000Z,97811.47
2023-04-12T00:24:40.403Z,97824.78
2023-04-12T00:27:08.092Z,97833.44
2023-04-12T00:29:36.452Z,97820.72
2023-04-12T00:32:05.586Z,97819.03
2023-04-12T00:34:32.773Z,97838.38
2023-04-12T00:37:01.990Z,97839.31
2023-04-12T00:39:29.331Z,97833.00
2023-04-12T00:41:57.618Z,97834.47
2023-04-12T00:44:24.738Z,97820.00
2023-04-12T00:46:51.925Z,97819.66
2023-04-12T00:49:18.981Z,97812.09
2023-04-12T00:51:46.031Z,97817.22
2023-04-12T00:54:14.565Z,97812.78
2023-04-12T00:56:41.697Z,97816.06
2023-04-12T00:59:08.957Z,97815.25
2023-04-12T01:01:41.060Z,97821.56
2023-04-12T01:04:09.337Z,97821.81
2023-04-12T01:06:39.276Z,97822.44
2023-04-12T01:09:49.769Z,97818.78
2023-04-12T01:13:28.491Z,97802.47
2023-04-12T01:16:09.045Z,97805.94
2023-04-12T01:18:41.477Z,97807.38
2023-04-12T01:21:25.298Z,97800.81
2023-04-12T01:24:21.704Z,97802.13
2023-04-12T01:26:50.054Z,97792.00
2023-04-12T01:29:21.408Z,97794.25
2023-04-12T01:32:08.071Z,97789.66
2023-04-12T01:34:36.869Z,97782.94
2023-04-12T01:37:05.026Z,97779.09
2023-04-12T01:39:34.124Z,97781.50
2023-04-12T01:42:02.774Z,97769.75
2023-04-12T01:44:29.760Z,97766.97
2023-04-12T01:46:57.126Z,97764.72
2023-04-12T01:49:41.674Z,97755.38
2023-04-12T01:52:20.453Z,97749.97
2023-04-12T01:54:51.408Z,97752.88
2023-04-12T01:57:20.688Z,97743.50
2023-04-12T01:59:50.533Z,97737.84
2023-04-12T02:02:18.901Z,97730.94
2023-04-12T02:04:47.068Z,97731.28
2023-04-12T02:07:18.800Z,97730.13
2023-04-12T02:09:46.019Z,97731.19
2023-04-12T02:12:13.262Z,97722.56
2023-04-12T02:14:40.291Z,97719.38
2023-04-12T02:17:08.057Z,97714.56
2023-04-12T02:19:35.665Z,97707.25
2023-04-12T02:22:04.500Z,97697.72
2023-04-12T02:24:32.120Z,97699.66
2023-04-12T02:26:59.401Z,97694.84
2023-04-12T02:29:27.693Z,97679.00
2023-04-12T02:31:54.771Z,97687.22
2023-04-12T02:34:24.674Z,97671.97
2023-04-12T02:36:59.384Z,97666.94
2023-04-12T02:39:26.345Z,97659.59
2023-04-12T02:41:54.267Z,97664.44
2023-04-12T02:44:21.364Z,97648.47
2023-04-12T02:47:07.183Z,97648.06
2023-04-12T02:49:35.661Z,97636.88
2023-04-12T02:52:03.467Z,97637.91
2023-04-12T02:54:38.849Z,97635.75
2023-04-12T02:57:07.016Z,97633.03
2023-04-12T02:59:38.038Z,97628.84
2023-04-12T03:02:26.049Z,97629.38
2023-04-12T03:04:58.583Z,97625.44
2023-04-12T03:07:36.057Z,97624.34
2023-04-12T03:10:06.957Z,97623.22
2023-04-12T03:12:37.885Z,97615.41
2023-04-12T03:15:25.644Z,97614.94
2023-04-12T03:17:53.904Z,97612.63
2023-04-12T03:20:25.234Z,97606.03
2023-04-12T03:23:07.399Z,97606.44
2023-04-12T03:25:37.706Z,97594.16
2023-04-12T03:28:33.698Z,97591.66
2023-04-12T03:31:02.994Z,97589.13
2023-04-12T03:33:42.052Z,97578.00
2023-04-12T03:36:20.332Z,97571.94
2023-04-12T03:38:51.972Z,97564.16
2023-04-12T03:41:22.047Z,97552.63
2023-04-12T03:43:49.699Z,97549.75
2023-04-12T03:46:18.917Z,97543.88
2023-04-12T03:48:52.592Z,97541.34
2023-04-12T03:51:22.303Z,97532.56
2023-04-12T03:53:49.604Z,97538.44
2023-04-12T03:56:16.669Z,97535.91
2023-04-12T03:58:47.799Z,97542.84
2023-04-12T04:01:17.828Z,97529.81
2023-04-12T04:03:54.260Z,97531.50
2023-04-12T04:06:25.726Z,97530.56
2023-04-12T04:08:58.973Z,97521.75
2023-04-12T04:11:27.230Z,97525.06
2023-04-12T04:14:02.381Z,97522.44
2023-04-12T04:16:30.960Z,97521.84
2023-04-12T04:18:58.917Z,97514.06
2023-04-12T04:21:26.664Z,97517.31
2023-04-12T04:24:01.118Z,97502.66
2023-04-12T04:26:33.441Z,97499.16
2023-04-12T04:29:23.705Z,97502.00
2023-04-12T04:31:50.933Z,97499.06
2023-04-12T04:34:19.255Z,97498.13
2023-04-12T04:36:48.253Z,97491.91
2023-04-12T04:39:22.968Z,97490.25
2023-04-12T04:41:55.077Z,97486.75
2023-04-12T04:44:36.206Z,97483.91
2023-04-12T04:47:06.915Z,97474.34
2023-04-12T04:49:34.000Z,97477.81
2023-04-12T04:52:09.448Z,97476.03
2023-04-12T04:54:36.467Z,97475.66
2023-04-12T04:57:07.842Z,97468.41
2023-04-12T04:59:35.592Z,97463.06
2023-04-12T05:02:14.048Z,97466.84
2023-04-12T05:04:41.426Z,97467.22
2023-04-12T05:07:10.902Z,97467.56
2023-04-12T05:09:37.939Z,97473.03
2023-04-12T05:12:05.014Z,97467.34
2023-04-12T05:14:44.463Z,97469.00
2023-04-12T05:17:14.012Z,97461.50
2023-04-12T05:19:43.762Z,97463.03
2023-04-12T05:22:10.966Z,97455.06
2023-04-12T05:24:38.033Z,97452.66
2023-04-12T05:27:05.666Z,97465.66
2023-04-12T05:29:32.684Z,97453.38
2023-04-12T05:31:59.675Z,97452.06
2023-04-12T05:34:27.093Z,97452.06
2023-04-12T05:36:56.949Z,97454.56
2023-04-12T05:39:24.147Z,97454.44
2023-04-12T05:41:53.161Z,97458.16
2023-04-12T05:44:20.255Z,97437.84
2023-04-12T05:46:47.622Z,97448.47
2023-04-12T05:49:16.024Z,97446.81
2023-04-12T05:51:43.010Z,97446.56
2023-04-12T05:54:21.255Z,97442.28
2023-04-12T05:56:51.853Z,97426.53
2023-04-12T05:59:19.681Z,97417.69
2023-04-12T06:01:46.970Z,97410.63
2023-04-12T06:04:15.218Z,97412.19
2023-04-12T06:06:43.557Z,97401.66
2023-04-12T06:09:11.102Z,97380.56
2023-04-12T06:11:39.304Z,97383.75
2023-04-12T06:14:07.044Z,97382.56
2023-04-12T06:16:34.248Z,97378.84
2023-04-12T06:19:01.584Z,97382.09
2023-04-12T06:21:28.931Z,97380.16
2023-04-12T06:23:56.089Z,97378.13
2023-04-12T06:26:23.125Z,97378.84
2023-04-12T06:28:50.093Z,97364.63
2023-04-12T06:31:17.275Z,97359.94
2023-04-12T06:33:44.778Z,97360.66
2023-04-12T06:36:12.653Z,97348.69
2023-04-12T06:38:39.937Z,97343.44
2023-04-12T06:41:07.231Z,97333.38
2023-04-12T06:43:34.301Z,97319.16
2023-04-12T06:46:03.037Z,97310.06
2023-04-12T06:48:30.219Z,97309.09
2023-04-12T06:50:57.143Z,97312.31
2023-04-12T06:53:24.142Z,97301.66
2023-04-12T06:55:51.267Z,97293.66
2023-04-12T06:58:18.418Z,97279.03
2023-04-12T07:00:45.394Z,97282.38
2023-04-12T07:03:12.444Z,97280.31
2023-04-12T07:05:39.642Z,97273.00
2023-04-12T07:08:08.455Z,97270.81
2023-04-12T07:10:36.226Z,97261.13
2023-04-12T07:13:07.072Z,97259.06
2023-04-12T07:15:34.378Z,97262.97
2023-04-12T07:18:01.361Z,97260.34
2023-04-12T07:20:28.302Z,97251.47
2023-04-12T07:22:55.382Z,97240.97
2023-04-12T07:25:22.360Z,97237.25
2023-04-12T07:27:51.274Z,97227.69
2023-04-12T07:30:19.015Z,97218.44
2023-04-12T07:32:46.214Z,97210.53
2023-04-12T07:35:13.248Z,97212.91
2023-04-12T07:37:40.345Z,97201.16
2023-04-12T07:40:08.203Z,97200.75
2023-04-12T07:42:35.166Z,97197.16
2023-04-12T07:45:02.238Z,97189.69
2023-04-12T07:47:29.303Z,97194.94
2023-04-12T07:49:57.519Z,97188.47
2023-04-12T07:52:25.084Z,97177.94
2023-04-12T07:54:52.019Z,97175.03
2023-04-12T07:57:19.025Z,97171.19
2023-04-12T07:59:46.036Z,97174.38
2023-04-12T08:02:13.176Z,97161.47
2023-04-12T08:04:44.378Z,97153.59
2023-04-12T08:07:11.698Z,97147.38
2023-04-12T08:09:38.656Z,97138.09
2023-04-12T08:12:05.953Z,97145.69
2023-04-12T08:14:32.911Z,97140.84
2023-04-12T08:16:59.854Z,97135.34
2023-04-12T08:19:27.252Z,97139.09
2023-04-12T08:21:54.268Z,97129.53
2023-04-12T08:24:21.314Z,97132.84
2023-04-12T08:26:48.265Z,97127.03
2023-04-12T08:29:15.213Z,97135.34
2023-04-12T08:31:45.774Z,97129.94
2023-04-12T08:34:12.807Z,97123.72
2023-04-12T08:36:39.773Z,97117.19
2023-04-12T08:39:06.716Z,97122.84
2023-04-12T08:41:36.497Z,97120.91
2023-04-12T08:44:05.472Z,97110.38
2023-04-12T08:46:36.005Z,97105.00
2023-04-12T08:49:02.959Z,97107.34
2023-04-12T08:51:30.440Z,97102.06
2023-04-12T08:53:57.654Z,97107.91
2023-04-12T08:56:25.329Z,97105.81
2023-04-12T08:58:53.168Z,97107.34
2023-04-12T09:01:21.426Z,97114.41
2023-04-12T09:03:49.130Z,97102.47
2023-04-12T09:06:16.386Z,97096.94
2023-04-12T09:08:57.202Z,97095.53
2023-04-12T09:11:28.954Z,97086.41
2023-04-12T09:13:58.712Z,97095.81
2023-04-12T09:16:41.547Z,97083.22
2023-04-12T09:19:09.258Z,97069.19
2023-04-12T09:21:36.868Z,97068.06
2023-04-12T09:24:12.606Z,97065.97
2023-04-12T09:26:41.239Z,97062.50
2023-04-12T09:29:25.440Z,97066.53
2023-04-12T09:32:06.979Z,97052.22
2023-04-12T09:34:36.038Z,97053.75
2023-04-12T09:37:17.209Z,97050.66
2023-04-12T09:39:44.577Z,97046.91
2023-04-12T09:42:29.823Z,97044.38
2023-04-12T09:45:18.932Z,97039.66
2023-04-12T09:47:46.851Z,97035.72
2023-04-12T09:50:26.467Z,97033.47
2023-04-12T09:52:55.283Z,97036.91
2023-04-12T09:55:25.248Z,97037.69
2023-04-12T09:57:55.072Z,97027.66
2023-04-12T10:00:27.321Z,97022.09
2023-04-12T10:02:56.731Z,97028.44
2023-04-12T10:05:26.685Z,97017.22
2023-04-12T10:07:55.322Z,97013.06
2023-04-12T10:10:23.549Z,97017.91
2023-04-12T10:12:51.260Z,97013.81
2023-04-12T10:15:20.793Z,97012.44
2023-04-12T10:17:55.256Z,97011.25
2023-04-12T10:20:26.196Z,97006.94
2023-04-12T10:22:56.417Z,97011.25
2023-04-12T10:25:27.339Z,97009.28
2023-04-12T10:27:54.381Z,97007.72
2023-04-12T10:30:30.551Z,96998.06
2023-04-12T10:33:03.636Z,96997.59
2023-04-12T10:35:48.818Z,96986.28
2023-04-12T10:38:16.690Z,96989.03
2023-04-12T10:41:16.311Z,96982.13
2023-04-12T10:43:48.401Z,96985.69
2023-04-12T10:46:40.604Z,96986.94
2023-04-12T10:49:15.374Z,96987.81
2023-04-12T10:52:02.576Z,96983.50
2023-04-12T10:54:35.099Z,96976.91
2023-04-12T10:57:06.779Z,96983.16
2023-04-12T10:59:54.306Z,96982.56
2023-04-12T11:02:21.653Z,96971.03
2023-04-12T11:05:09.497Z,96971.75
2023-04-12T11:07:53.923Z,96962.72
2023-04-12T11:10:41.863Z,96969.84
2023-04-12T11:13:15.048Z,96969.41
2023-04-12T11:15:42.057Z,96958.16
2023-04-12T11:18:12.661Z,96961.97
2023-04-12T11:20:42.854Z,96959.84
2023-04-12T11:23:11.809Z,96956.53
2023-04-12T11:25:38.985Z,96955.88
2023-04-12T11:28:17.334Z,96946.75
2023-04-12T11:30:55.521Z,96950.25
2023-04-12T11:33:39.758Z,96951.22
2023-04-12T11:36:12.778Z,96951.25
2023-04-12T11:38:41.130Z,96953.38
2023-04-12T11:41:09.295Z,96946.59
2023-04-12T11:43:38.800Z,96946.41
2023-04-12T11:46:06.469Z,96947.06
2023-04-12T11:48:33.824Z,96944.56
2023-04-12T11:51:10.864Z,96938.25
2023-04-12T11:53:39.061Z,96927.03
2023-04-12T11:56:06.829Z,96931.63
2023-04-12T11:58:33.900Z,96925.59
2023-04-12T12:01:01.481Z,96927.88
2023-04-12T12:03:28.938Z,96926.84
2023-04-12T12:05:56.695Z,96937.66
2023-04-12T12:08:24.624Z,96930.66
2023-04-12T12:11:04.139Z,96936.94
2023-04-12T12:13:56.341Z,96921.78
2023-04-12T12:16:30.110Z,96932.69
2023-04-12T12:18:57.917Z,96923.13
2023-04-12T12:21:27.175Z,96912.88
2023-04-12T12:23:56.429Z,96914.00
2023-04-12T12:26:28.237Z,96917.72
2023-04-12T12:28:57.310Z,96906.09
2023-04-12T12:31:28.001Z,96925.78
2023-04-12T12:33:59.830Z,96916.09
2023-04-12T12:36:36.172Z,96907.34
2023-04-12T12:39:15.325Z,96902.66
2023-04-12T12:41:42.343Z,96908.47
2023-04-12T12:44:11.165Z,96902.56
2023-04-12T12:49:08.276Z,96914.25
2023-04-12T12:51:35.271Z,96900.66
2023-04-12T12:54:02.200Z,96890.72
2023-04-12T12:56:29.261Z,96885.41
2023-04-12T12:58:56.375Z,96887.66
2023-04-12T13:01:23.588Z,96886.81
2023-04-12T13:03:51.100Z,96888.28
2023-04-12T13:06:18.265Z,96883.97
2023-04-12T13:08:45.361Z,96880.09
2023-04-12T13:11:12.486Z,96875.22
2023-04-12T13:13:39.454Z,96878.44
2023-04-12T13:16:07.184Z,96880.28
2023-04-12T13:18:34.213Z,96878.97
2023-04-12T13:21:01.153Z,96878.41
2023-04-12T13:23:28.154Z,96883.56
2023-04-12T13:25:55.065Z,96876.69
2023-04-12T13:28:22.067Z,96876.59
2023-04-12T13:30:49.287Z,96860.88
2023-04-12T13:33:20.109Z,96851.59
2023-04-12T13:35:48.963Z,96858.72
2023-04-12T13:38:16.172Z,96861.13
2023-04-12T13:40:43.192Z,96845.38
2023-04-12T13:43:10.424Z,96833.44
2023-04-12T13:45:37.454Z,96838.94
2023-04-12T13:48:04.570Z,96846.84
2023-04-12T13:50:31.597Z,96850.63
2023-04-12T13:52:58.503Z,96838.56
2023-04-12T13:55:25.485Z,96843.81
2023-04-12T13:57:52.619Z,96839.75
2023-04-12T14:00:20.500Z,96830.78
2023-04-12T14:02:47.658Z,96844.16
2023-04-12T14:05:15.137Z,96829.16
2023-04-12T14:07:42.297Z,96816.28
2023-04-12T14:10:10.153Z,96805.44
2023-04-12T14:12:37.175Z,96820.78
2023-04-12T14:15:05.818Z,96819.47
2023-04-12T14:17:33.118Z,96819.50
2023-04-12T14:20:00.518Z,96813.00
2023-04-12T14:22:28.034Z,96814.91
2023-04-12T14:24:55.211Z,96818.97
2023-04-12T14:27:22.625Z,96810.81
2023-04-12T14:29:49.708Z,96809.44
2023-04-12T14:32:17.035Z,96810.72
2023-04-12T14:34:44.163Z,96809.03
2023-04-12T14:37:11.293Z,96796.06
2023-04-12T14:39:38.299Z,96779.44
2023-04-12T14:42:06.125Z,96782.84
2023-04-12T14:44:33.167Z,96767.25
2023-04-12T14:47:00.149Z,96775.75
2023-04-12T14:49:29.476Z,96769.00
2023-04-12T14:51:57.813Z,96770.97
2023-04-12T14:54:24.779Z,96777.28
2023-04-12T14:56:55.701Z,96780.19
2023-04-12T14:59:23.562Z,96768.41
2023-04-12T15:01:52.624Z,96775.75
2023-04-12T15:04:20.228Z,96761.34
2023-04-12T15:06:47.401Z,96763.06
2023-04-12T15:09:15.701Z,96763.81
2023-04-12T15:11:46.450Z,96777.53
2023-04-12T15:14:17.730Z,96776.38
2023-04-12T15:16:46.433Z,96765.59
2023-04-12T15:19:20.043Z,96778.84
2023-04-12T15:21:51.277Z,96775.03
2023-04-12T15:24:22.493Z,96774.34
2023-04-12T15:26:52.417Z,96773.44
2023-04-12T15:29:21.331Z,96776.19
2023-04-12T15:31:48.369Z,96808.41
2023-04-12T15:34:15.459Z,96843.94
2023-04-12T15:36:46.122Z,96859.22
2023-04-12T15:39:14.923Z,96852.06
2023-04-12T15:41:42.912Z,96840.56
2023-04-12T15:44:14.309Z,96849.16
2023-04-12T15:46:42.477Z,96853.84
2023-04-12T15:49:10.807Z,96870.13
2023-04-12T15:51:38.277Z,96877.00
2023-04-12T15:54:06.141Z,96893.31
2023-04-12T15:56:34.617Z,96889.31
2023-04-12T15:59:01.873Z,96889.31
2023-04-12T16:01:29.173Z,96889.66
2023-04-12T16:03:56.534Z,96896.63
2023-04-12T16:06:25.241Z,96889.06
2023-04-12T16:08:57.400Z,96884.81
2023-04-12T16:11:24.801Z,96899.34
2023-04-12T16:13:52.955Z,96888.50
2023-04-12T16:16:23.322Z,96893.28
2023-04-12T16:18:51.506Z,96894.19
2023-04-12T16:21:21.130Z,96906.44
2023-04-12T16:23:50.275Z,96909.19
2023-04-12T16:26:22.095Z,96913.59
2023-04-12T16:28:51.686Z,96904.34
2023-04-12T16:31:22.664Z,96898.75
2023-04-12T16:33:51.177Z,96891.13
2023-04-12T16:36:18.937Z,96894.25
2023-04-12T16:38:46.253Z,96901.84
2023-04-12T16:41:13.330Z,96904.03
2023-04-12T16:43:42.072Z,96905.66
2023-04-12T16:46:11.092Z,96892.09
2023-04-12T16:48:43.941Z,96892.09
2023-04-12T16:51:11.189Z,96894.38
2023-04-12T16:53:38.210Z,96889.09
2023-04-12T16:56:05.608Z,96886.44
2023-04-12T16:58:33.417Z,96885.66
2023-04-12T17:01:00.914Z,96890.91
2023-04-12T17:03:28.111Z,96888.56
2023-04-12T17:05:55.245Z,96885.25
2023-04-12T17:08:22.652Z,96883.91
2023-04-12T17:10:49.709Z,96885.94
2023-04-12T17:13:19.445Z,96894.16
2023-04-12T17:15:48.300Z,96901.53
2023-04-12T17:18:15.775Z,96904.72
2023-04-12T17:20:43.387Z,96900.72
2023-04-12T17:23:10.868Z,96908.09
2023-04-12T17:25:38.449Z,96907.81
2023-04-12T17:28:07.822Z,96894.75
2023-04-12T17:30:34.961Z,96895.75
2023-04-12T17:33:02.991Z,96899.53
2023-04-12T17:35:30.102Z,96912.88
2023-04-12T17:37:57.160Z,96926.06
2023-04-12T17:40:24.222Z,96935.63
2023-04-12T17:42:51.375Z,96943.72
2023-04-12T17:45:21.514Z,96944.53
2023-04-12T17:47:48.610Z,96947.41
2023-04-12T17:50:15.721Z,96949.50
2023-04-12T17:52:42.730Z,96947.38
2023-04-12T17:55:10.362Z,96962.69
2023-04-12T17:57:37.486Z,96955.97
2023-04-12T18:00:09.577Z,96953.78
2023-04-12T18:02:40.673Z,96947.88
2023-04-12T18:05:08.152Z,96943.75
2023-04-12T18:07:35.583Z,96953.78
2023-04-12T18:10:03.189Z,96960.00
2023-04-12T18:12:30.270Z,96944.72
2023-04-12T18:14:57.404Z,96916.56
2023-04-12T18:17:26.451Z,96915.56
2023-04-12T18:19:54.680Z,96919.31
2023-04-12T18:22:22.542Z,96907.88
2023-04-12T18:24:49.465Z,96912.91
2023-04-12T18:27:16.424Z,96918.63
2023-04-12T18:29:43.461Z,96927.47
2023-04-12T18:32:10.707Z,96939.59
2023-04-12T18:34:37.761Z,96948.34
2023-04-12T18:37:05.984Z,96949.91
2023-04-12T18:39:35.465Z,96953.13
2023-04-12T18:42:02.759Z,96950.59
2023-04-12T18:44:31.398Z,96949.69
2023-04-12T18:46:58.408Z,96961.56
2023-04-12T18:49:25.963Z,96964.50
2023-04-12T18:51:53.775Z,96968.41
2023-04-12T18:54:21.086Z,96967.19
2023-04-12T18:56:48.216Z,96965.25
2023-04-12T18:59:17.766Z,96972.22
2023-04-12T19:01:46.227Z,96962.78
2023-04-12T19:04:16.289Z,96970.16
2023-04-12T19:06:44.584Z,96976.13
2023-04-12T19:09:11.687Z,96976.56
2023-04-12T19:11:38.837Z,96986.66
2023-04-12T19:14:06.867Z,96993.59
2023-04-12T19:16:35.067Z,97001.91
2023-04-12T19:19:02.656Z,97000.97
2023-04-12T19:21:29.817Z,96996.09
2023-04-12T19:23:57.126Z,96997.59
2023-04-12T19:26:24.433Z,97001.41
2023-04-12T19:28:55.363Z,97002.75
2023-04-12T19:31:23.738Z,97002.22
2023-04-12T19:33:51.118Z,97005.81
2023-04-12T19:36:18.149Z,97005.53
2023-04-12T19:38:47.856Z,96999.28
2023-04-12T19:41:17.698Z,97006.72
2023-04-12T19:43:44.706Z,97001.16
2023-04-12T19:46:11.843Z,97015.75
2023-04-12T19:48:38.837Z,97015.88
2023-04-12T19:51:06.114Z,97020.97
2023-04-12T19:53:33.424Z,97018.69
2023-04-12T19:56:03.885Z,97022.09
2023-04-12T19:58:31.987Z,97023.06
2023-04-12T20:01:02.246Z,97015.28
2023-04-12T20:03:30.080Z,97004.72
2023-04-12T20:05:58.928Z,96997.50
2023-04-12T20:08:29.427Z,97006.00
2023-04-12T20:10:56.648Z,96998.38
2023-04-12T20:13:23.700Z,96998.63
2023-04-12T20:15:51.175Z,97008.38
2023-04-12T20:18:18.270Z,97014.50
2023-04-12T20:20:45.675Z,97017.41
2023-04-12T20:23:13.918Z,96995.50
2023-04-12T20:25:41.862Z,96995.63
2023-04-12T20:28:09.408Z,97005.75
2023-04-12T20:30:36.869Z,97008.28
2023-04-12T20:33:04.598Z,96997.44
2023-04-12T20:35:32.023Z,96995.66
2023-04-12T20:38:00.001Z,96997.31
2023-04-12T20:40:29.635Z,97012.28
2023-04-12T20:42:57.141Z,97022.00
2023-04-12T20:45:24.382Z,97017.00
2023-04-12T20:47:51.484Z,97027.84
2023-04-12T20:50:22.889Z,97040.72
2023-04-12T20:52:51.905Z,97049.03
2023-04-12T20:55:19.182Z,97055.25
2023-04-12T20:57:46.345Z,97067.75
2023-04-12T21:00:18.259Z,97087.56
2023-04-12T21:02:47.211Z,97118.28
2023-04-12T21:05:17.695Z,97133.13
2023-04-12T21:07:46.812Z,97130.19
2023-04-12T21:10:14.993Z,97131.81
2023-04-12T21:12:44.882Z,97142.16
2023-04-12T21:15:12.790Z,97137.97
2023-04-12T21:17:40.698Z,97135.41
2023-04-12T21:20:13.725Z,97115.63
2023-04-12T21:22:47.656Z,97111.59
2023-04-12T21:25:16.166Z,97113.69
2023-04-12T21:27:44.934Z,97108.66
2023-04-12T21:30:12.875Z,97096.09
2023-04-12T21:32:41.063Z,97101.75
2023-04-12T21:35:09.879Z,97108.22
2023-04-12T21:37:39.106Z,97106.88
2023-04-12T21:40:14.003Z,97113.50
2023-04-12T21:42:41.313Z,97110.56
2023-04-12T21:45:09.787Z,97109.44
2023-04-12T21:47:40.208Z,97109.94
2023-04-12T21:50:11.658Z,97118.53
2023-04-12T21:52:40.397Z,97120.78
2023-04-12T21:55:07.720Z,97123.78
2023-04-12T21:57:35.949Z,97114.22
2023-04-12T22:00:05.683Z,97121.28
2023-04-12T22:02:39.158Z,97128.72
2023-04-12T22:05:07.541Z,97141.03
2023-04-12T22:07:34.581Z,97146.28
2023-04-12T22:10:02.453Z,97143.13
2023-04-12T22:12:29.989Z,97153.63
2023-04-12T22:14:57.725Z,97155.44
2023-04-12T22:17:24.997Z,97154.63
2023-04-12T22:19:55.063Z,97158.66
2023-04-12T22:22:25.464Z,97152.81
2023-04-12T22:24:53.782Z,97165.13
2023-04-12T22:27:21.288Z,97171.09
2023-04-12T22:29:50.613Z,97173.31
2023-04-12T22:32:17.709Z,97179.53
2023-04-12T22:34:45.024Z,97191.34
2023-04-12T22:37:13.559Z,97196.31
2023-04-12T22:39:40.579Z,97211.56
2023-04-12T22:42:07.569Z,97198.31
2023-04-12T22:44:40.329Z,97191.25
2023-04-12T22:47:07.576Z,97196.13
2023-04-12T22:49:46.565Z,97197.22
2023-04-12T22:52:13.618Z,97192.94
2023-04-12T22:54:40.594Z,97205.38
2023-04-12T22:57:07.649Z,97213.91
2023-04-12T22:59:34.952Z,97209.03
2023-04-12T23:02:02.426Z,97219.53
2023-04-12T23:04:29.612Z,97223.38
2023-04-12T23:06:56.629Z,97219.91
2023-04-12T23:09:23.803Z,97213.41
2023-04-12T23:11:51.587Z,97202.88
2023-04-12T23:14:18.717Z,97201.66
2023-04-12T23:16:46.307Z,97200.69
2023-04-12T23:19:14.550Z,97199.28
2023-04-12T23:21:42.237Z,97202.63
2023-04-12T23:24:16.258Z,97208.25
2023-04-12T23:26:45.357Z,97206.53
2023-04-12T23:29:12.857Z,97203.38
2023-04-12T23:31:41.464Z,97204.72
2023-04-12T23:34:08.525Z,97196.72
2023-04-12T23:36:36.174Z,97191.16
2023-04-12T23:39:08.549Z,97192.75
2023-04-12T23:41:36.160Z,97191.16
2023-04-12T23:44:03.216Z,97181.34
2023-04-12T23:46:30.281Z,97176.88
2023-04-12T23:48:57.369Z,97176.47
2023-04-12T23:51:24.344Z,97177.72
2023-04-12T23:53:51.721Z,97194.19
2023-04-12T23:56:18.904Z,97199.75
2023-04-12T23:58:47.084Z,97203.34
